SVR9443 USNN-USMU
Flight info
| Callsign | SVR9443 |
|---|---|
| Flight time | 1h 14m |
| Altitude | 32000 |
| Route | NIMOL1P NIMOL G715 URAMI W143 NOLBI T660 TARSA W128 LUNOD LUNOD5F |
| Aircraft | A321/M-SDE3FGHIRWY/LB1 |
Departure
| Time | 2026-04-19 14:00 |
|---|---|
| Airport | Nizhnevartovsk Airport (USNN) |
Arrival
| Time | 2026-04-19 15:14 |
|---|---|
| Airport | Novy Urengoy Airport (USMU) |
| Time | Latitude | Longitude | Altitude | Speed | Heading |
|---|---|---|---|---|---|
| 2026-04-19 13:46 | 60.95071 | 76.49078 | 186 ft | 0 kts | 132° |
| 2026-04-19 13:52 | 60.95068 | 76.49084 | 197 ft | 2 kts | 132° |
| 2026-04-19 13:52 | 60.95059 | 76.49106 | 189 ft | 3 kts | 125° |
| 2026-04-19 13:52 | 60.95055 | 76.49145 | 186 ft | 2 kts | 88° |
| 2026-04-19 13:53 | 60.95064 | 76.49187 | 186 ft | 6 kts | 58° |
| 2026-04-19 13:53 | 60.95100 | 76.49258 | 191 ft | 7 kts | 42° |
| 2026-04-19 13:53 | 60.95135 | 76.49323 | 192 ft | 7 kts | 42° |
| 2026-04-19 13:53 | 60.95170 | 76.49389 | 186 ft | 7 kts | 42° |
| 2026-04-19 13:54 | 60.95206 | 76.49452 | 189 ft | 7 kts | 37° |
| 2026-04-19 13:54 | 60.95242 | 76.49512 | 192 ft | 7 kts | 41° |
| 2026-04-19 13:54 | 60.95276 | 76.49575 | 190 ft | 7 kts | 42° |
| 2026-04-19 13:54 | 60.95313 | 76.49644 | 192 ft | 7 kts | 42° |
| 2026-04-19 13:55 | 60.95350 | 76.49714 | 188 ft | 7 kts | 43° |
| 2026-04-19 13:55 | 60.95388 | 76.49786 | 195 ft | 7 kts | 42° |
| 2026-04-19 13:55 | 60.95426 | 76.49852 | 185 ft | 7 kts | 30° |
| 2026-04-19 13:55 | 60.95465 | 76.49830 | 187 ft | 5 kts | 315° |
| 2026-04-19 13:56 | 60.95490 | 76.49780 | 193 ft | 5 kts | 328° |
| 2026-04-19 13:56 | 60.95518 | 76.49778 | 193 ft | 4 kts | 15° |
| 2026-04-19 13:56 | 60.95551 | 76.49829 | 186 ft | 7 kts | 42° |
| 2026-04-19 13:56 | 60.95590 | 76.49900 | 190 ft | 8 kts | 41° |
| 2026-04-19 13:57 | 60.95629 | 76.49971 | 189 ft | 7 kts | 42° |
| 2026-04-19 13:57 | 60.95669 | 76.50046 | 203 ft | 8 kts | 42° |
| 2026-04-19 13:57 | 60.95711 | 76.50124 | 186 ft | 8 kts | 42° |
| 2026-04-19 13:57 | 60.95752 | 76.50200 | 185 ft | 8 kts | 41° |
| 2026-04-19 13:58 | 60.95792 | 76.50269 | 193 ft | 7 kts | 34° |
| 2026-04-19 13:58 | 60.95845 | 76.50297 | 194 ft | 8 kts | 1° |
| 2026-04-19 13:58 | 60.95898 | 76.50292 | 185 ft | 7 kts | 357° |
| 2026-04-19 13:58 | 60.95952 | 76.50272 | 185 ft | 8 kts | 336° |
| 2026-04-19 13:59 | 60.95979 | 76.50196 | 186 ft | 7 kts | 272° |
| 2026-04-19 13:59 | 60.95836 | 76.49894 | 188 ft | 68 kts | 222° |
| 2026-04-19 13:59 | 60.95298 | 76.48884 | 189 ft | 135 kts | 223° |
| 2026-04-19 13:59 | 60.94500 | 76.47382 | 459 ft | 164 kts | 224° |
| 2026-04-19 14:00 | 60.93653 | 76.45787 | 1258 ft | 167 kts | 225° |
| 2026-04-19 14:00 | 60.92767 | 76.44151 | 1819 ft | 180 kts | 225° |
| 2026-04-19 14:00 | 60.91777 | 76.42328 | 2173 ft | 202 kts | 224° |
| 2026-04-19 14:00 | 60.90667 | 76.40281 | 2547 ft | 227 kts | 224° |
| 2026-04-19 14:01 | 60.89446 | 76.37962 | 3044 ft | 250 kts | 230° |
| 2026-04-19 14:01 | 60.88729 | 76.34739 | 3828 ft | 253 kts | 268° |
| 2026-04-19 14:01 | 60.89106 | 76.31298 | 4779 ft | 250 kts | 305° |
| 2026-04-19 14:01 | 60.90406 | 76.29041 | 5749 ft | 249 kts | 340° |
| 2026-04-19 14:02 | 60.92116 | 76.28851 | 6702 ft | 253 kts | 15° |
| 2026-04-19 14:02 | 60.93709 | 76.30471 | 7621 ft | 259 kts | 31° |
| 2026-04-19 14:02 | 60.95190 | 76.32630 | 8513 ft | 263 kts | 32° |
| 2026-04-19 14:02 | 60.96687 | 76.34852 | 9397 ft | 268 kts | 32° |
| 2026-04-19 14:03 | 60.98211 | 76.37113 | 10259 ft | 272 kts | 31° |
| 2026-04-19 14:03 | 60.99803 | 76.39373 | 10743 ft | 287 kts | 27° |
| 2026-04-19 14:03 | 61.01623 | 76.41400 | 10985 ft | 308 kts | 22° |
| 2026-04-19 14:03 | 61.03602 | 76.43301 | 11509 ft | 318 kts | 20° |
| 2026-04-19 14:04 | 61.05637 | 76.45168 | 12248 ft | 322 kts | 19° |
| 2026-04-19 14:04 | 61.07698 | 76.47071 | 13029 ft | 327 kts | 19° |
| 2026-04-19 14:04 | 61.09780 | 76.49040 | 13792 ft | 331 kts | 19° |
| 2026-04-19 14:04 | 61.11906 | 76.51094 | 14514 ft | 335 kts | 19° |
| 2026-04-19 14:05 | 61.14027 | 76.53177 | 15180 ft | 339 kts | 19° |
| 2026-04-19 14:05 | 61.16171 | 76.55302 | 15849 ft | 343 kts | 19° |
| 2026-04-19 14:05 | 61.18333 | 76.57461 | 16516 ft | 347 kts | 19° |
| 2026-04-19 14:05 | 61.20521 | 76.59654 | 17172 ft | 351 kts | 19° |
| 2026-04-19 14:06 | 61.22731 | 76.61867 | 17821 ft | 355 kts | 18° |
| 2026-04-19 14:06 | 61.24969 | 76.64105 | 18465 ft | 359 kts | 18° |
| 2026-04-19 14:06 | 61.27228 | 76.66367 | 19025 ft | 362 kts | 18° |
| 2026-04-19 14:06 | 61.29508 | 76.68659 | 19583 ft | 365 kts | 18° |
| 2026-04-19 14:07 | 61.31806 | 76.70975 | 20131 ft | 368 kts | 17° |
| 2026-04-19 14:07 | 61.34115 | 76.73304 | 20655 ft | 370 kts | 17° |
| 2026-04-19 14:07 | 61.35656 | 76.74857 | 20996 ft | 372 kts | 17° |
| 2026-04-19 14:07 | 61.38845 | 76.77494 | 21644 ft | 368 kts | 9° |
| 2026-04-19 14:08 | 61.41282 | 76.79185 | 22136 ft | 370 kts | 9° |
| 2026-04-19 14:08 | 61.42938 | 76.80341 | 22488 ft | 372 kts | 9° |
| 2026-04-19 14:08 | 61.45399 | 76.82067 | 22978 ft | 374 kts | 9° |
| 2026-04-19 14:08 | 61.47873 | 76.83804 | 23474 ft | 376 kts | 9° |
| 2026-04-19 14:09 | 61.50364 | 76.85559 | 23954 ft | 379 kts | 9° |
| 2026-04-19 14:09 | 61.52873 | 76.87330 | 24350 ft | 382 kts | 9° |
| 2026-04-19 14:09 | 61.55398 | 76.89114 | 24742 ft | 384 kts | 9° |
| 2026-04-19 14:09 | 61.57937 | 76.90916 | 25148 ft | 387 kts | 9° |
| 2026-04-19 14:10 | 61.60501 | 76.92735 | 25536 ft | 390 kts | 9° |
| 2026-04-19 14:10 | 61.63076 | 76.94561 | 25934 ft | 393 kts | 9° |
| 2026-04-19 14:10 | 61.65677 | 76.96413 | 26321 ft | 395 kts | 9° |
| 2026-04-19 14:10 | 61.68290 | 76.98281 | 26695 ft | 398 kts | 10° |
| 2026-04-19 14:11 | 61.70925 | 77.00171 | 27069 ft | 401 kts | 10° |
| 2026-04-19 14:11 | 61.73578 | 77.02081 | 27438 ft | 404 kts | 10° |
| 2026-04-19 14:11 | 61.76247 | 77.04003 | 27795 ft | 407 kts | 10° |
| 2026-04-19 14:11 | 61.78937 | 77.05937 | 28145 ft | 410 kts | 10° |
| 2026-04-19 14:12 | 61.81644 | 77.07879 | 28497 ft | 412 kts | 10° |
| 2026-04-19 14:12 | 61.84371 | 77.09840 | 28835 ft | 415 kts | 11° |
| 2026-04-19 14:12 | 61.87116 | 77.11829 | 29170 ft | 418 kts | 11° |
| 2026-04-19 14:12 | 61.89879 | 77.13835 | 29494 ft | 421 kts | 11° |
| 2026-04-19 14:13 | 61.92658 | 77.15850 | 29818 ft | 424 kts | 11° |
| 2026-04-19 14:13 | 61.95454 | 77.17881 | 30129 ft | 426 kts | 11° |
| 2026-04-19 14:13 | 61.98273 | 77.19935 | 30410 ft | 429 kts | 11° |
| 2026-04-19 14:13 | 62.01106 | 77.22002 | 30636 ft | 432 kts | 11° |
| 2026-04-19 14:14 | 62.03949 | 77.24082 | 30856 ft | 434 kts | 12° |
| 2026-04-19 14:14 | 62.06816 | 77.26185 | 31068 ft | 437 kts | 12° |
| 2026-04-19 14:14 | 62.09696 | 77.28304 | 31273 ft | 439 kts | 12° |
| 2026-04-19 14:14 | 62.12624 | 77.30452 | 31521 ft | 439 kts | 11° |
| 2026-04-19 14:15 | 62.15524 | 77.32020 | 31793 ft | 432 kts | 3° |
| 2026-04-19 14:15 | 62.18524 | 77.32692 | 32073 ft | 426 kts | 355° |
| 2026-04-19 14:15 | 62.21474 | 77.32589 | 32332 ft | 423 kts | 353° |
| 2026-04-19 14:15 | 62.24426 | 77.32414 | 32602 ft | 424 kts | 353° |
| 2026-04-19 14:16 | 62.27377 | 77.32254 | 32856 ft | 425 kts | 353° |
| 2026-04-19 14:16 | 62.30336 | 77.32104 | 33114 ft | 425 kts | 353° |
| 2026-04-19 14:16 | 62.33296 | 77.31965 | 33375 ft | 426 kts | 353° |
| 2026-04-19 14:16 | 62.36381 | 77.31815 | 33636 ft | 426 kts | 353° |
| 2026-04-19 14:17 | 62.39347 | 77.31651 | 33890 ft | 427 kts | 353° |
| 2026-04-19 14:17 | 62.42318 | 77.31473 | 34147 ft | 427 kts | 353° |
| 2026-04-19 14:17 | 62.45293 | 77.31295 | 34301 ft | 427 kts | 354° |
| 2026-04-19 14:18 | 62.51148 | 77.30992 | 34326 ft | 417 kts | 354° |
| 2026-04-19 14:18 | 62.56938 | 77.30637 | 34328 ft | 416 kts | 353° |
| 2026-04-19 14:19 | 62.62715 | 77.30074 | 34331 ft | 415 kts | 353° |
| 2026-04-19 14:19 | 62.68490 | 77.29461 | 34329 ft | 416 kts | 353° |
| 2026-04-19 14:20 | 62.74270 | 77.28877 | 34336 ft | 416 kts | 353° |
| 2026-04-19 14:20 | 62.80061 | 77.28326 | 34336 ft | 416 kts | 353° |
| 2026-04-19 14:21 | 62.85888 | 77.27786 | 34334 ft | 416 kts | 353° |
| 2026-04-19 14:21 | 62.91677 | 77.27222 | 34334 ft | 417 kts | 353° |
| 2026-04-19 14:22 | 62.97472 | 77.26647 | 34332 ft | 417 kts | 353° |
| 2026-04-19 14:22 | 63.03270 | 77.26085 | 34331 ft | 417 kts | 353° |
| 2026-04-19 14:23 | 63.09070 | 77.25530 | 34337 ft | 417 kts | 354° |
| 2026-04-19 14:23 | 63.14873 | 77.24967 | 34336 ft | 418 kts | 354° |
| 2026-04-19 14:24 | 63.20683 | 77.24383 | 34333 ft | 418 kts | 353° |
| 2026-04-19 14:24 | 63.26499 | 77.23798 | 34342 ft | 418 kts | 354° |
| 2026-04-19 14:25 | 63.32315 | 77.23220 | 34338 ft | 419 kts | 354° |
| 2026-04-19 14:25 | 63.38134 | 77.22626 | 34346 ft | 419 kts | 354° |
| 2026-04-19 14:26 | 63.43961 | 77.22038 | 34343 ft | 419 kts | 354° |
| 2026-04-19 14:26 | 63.49791 | 77.21464 | 34342 ft | 419 kts | 354° |
| 2026-04-19 14:27 | 63.55625 | 77.20871 | 34346 ft | 420 kts | 354° |
| 2026-04-19 14:27 | 63.61457 | 77.20278 | 34347 ft | 420 kts | 354° |
| 2026-04-19 14:28 | 63.67337 | 77.19688 | 34347 ft | 420 kts | 354° |
| 2026-04-19 14:28 | 63.73177 | 77.19077 | 34343 ft | 420 kts | 354° |
| 2026-04-19 14:29 | 63.79018 | 77.18474 | 34344 ft | 420 kts | 354° |
| 2026-04-19 14:29 | 63.84856 | 77.17871 | 34340 ft | 420 kts | 354° |
| 2026-04-19 14:30 | 63.90700 | 77.17266 | 34338 ft | 420 kts | 354° |
| 2026-04-19 14:30 | 63.96542 | 77.16664 | 34336 ft | 420 kts | 354° |
| 2026-04-19 14:31 | 64.02389 | 77.16048 | 34335 ft | 420 kts | 354° |
| 2026-04-19 14:31 | 64.08234 | 77.15418 | 34330 ft | 420 kts | 354° |
| 2026-04-19 14:32 | 64.14078 | 77.14803 | 34326 ft | 421 kts | 354° |
| 2026-04-19 14:32 | 64.19927 | 77.14179 | 34331 ft | 421 kts | 355° |
| 2026-04-19 14:33 | 64.25784 | 77.13565 | 34239 ft | 422 kts | 355° |
| 2026-04-19 14:33 | 64.28720 | 77.13261 | 33967 ft | 422 kts | 355° |
| 2026-04-19 14:33 | 64.31651 | 77.12952 | 33699 ft | 422 kts | 355° |
| 2026-04-19 14:33 | 64.34579 | 77.12634 | 33432 ft | 421 kts | 355° |
| 2026-04-19 14:34 | 64.37501 | 77.12308 | 33073 ft | 418 kts | 355° |
| 2026-04-19 14:34 | 64.39460 | 77.12091 | 32708 ft | 415 kts | 355° |
| 2026-04-19 14:34 | 64.42325 | 77.11783 | 32181 ft | 411 kts | 355° |
| 2026-04-19 14:35 | 64.47974 | 77.11180 | 31159 ft | 402 kts | 355° |
| 2026-04-19 14:35 | 64.50757 | 77.10875 | 30660 ft | 398 kts | 355° |
| 2026-04-19 14:35 | 64.53506 | 77.10572 | 30105 ft | 393 kts | 355° |
| 2026-04-19 14:35 | 64.56221 | 77.10276 | 29608 ft | 387 kts | 355° |
| 2026-04-19 14:36 | 64.58885 | 77.09987 | 29129 ft | 380 kts | 355° |
| 2026-04-19 14:36 | 64.61503 | 77.09703 | 28658 ft | 373 kts | 355° |
| 2026-04-19 14:36 | 64.64074 | 77.09420 | 28205 ft | 366 kts | 355° |
| 2026-04-19 14:36 | 64.66591 | 77.09143 | 27757 ft | 359 kts | 355° |
| 2026-04-19 14:37 | 64.69059 | 77.08869 | 27335 ft | 352 kts | 355° |
| 2026-04-19 14:37 | 64.71490 | 77.08598 | 26918 ft | 348 kts | 355° |
| 2026-04-19 14:37 | 64.73905 | 77.08324 | 26501 ft | 346 kts | 356° |
| 2026-04-19 14:37 | 64.76304 | 77.08055 | 26109 ft | 344 kts | 356° |
| 2026-04-19 14:38 | 64.78690 | 77.07789 | 25707 ft | 342 kts | 356° |
| 2026-04-19 14:38 | 64.81056 | 77.07526 | 25317 ft | 340 kts | 356° |
| 2026-04-19 14:38 | 64.83410 | 77.07263 | 24936 ft | 338 kts | 356° |
| 2026-04-19 14:38 | 64.85750 | 77.07006 | 24550 ft | 336 kts | 356° |
| 2026-04-19 14:39 | 64.88076 | 77.06751 | 24161 ft | 334 kts | 356° |
| 2026-04-19 14:39 | 64.90387 | 77.06493 | 23745 ft | 331 kts | 356° |
| 2026-04-19 14:39 | 64.92713 | 77.06232 | 23326 ft | 329 kts | 357° |
| 2026-04-19 14:39 | 64.94994 | 77.05978 | 22927 ft | 327 kts | 357° |
| 2026-04-19 14:40 | 64.97259 | 77.05727 | 22554 ft | 325 kts | 357° |
| 2026-04-19 14:40 | 64.99506 | 77.05475 | 22144 ft | 323 kts | 357° |
| 2026-04-19 14:40 | 65.01747 | 77.05215 | 21770 ft | 321 kts | 357° |
| 2026-04-19 14:40 | 65.03967 | 77.04959 | 21380 ft | 319 kts | 357° |
| 2026-04-19 14:41 | 65.06177 | 77.04714 | 20987 ft | 317 kts | 357° |
| 2026-04-19 14:41 | 65.08370 | 77.04473 | 20594 ft | 315 kts | 357° |
| 2026-04-19 14:41 | 65.10577 | 77.04221 | 20336 ft | 326 kts | 358° |
| 2026-04-19 14:41 | 65.12880 | 77.03956 | 20338 ft | 335 kts | 358° |
| 2026-04-19 14:42 | 65.15213 | 77.03691 | 20288 ft | 337 kts | 358° |
| 2026-04-19 14:42 | 65.17577 | 77.03422 | 19412 ft | 345 kts | 358° |
| 2026-04-19 14:42 | 65.19938 | 77.03147 | 19107 ft | 334 kts | 358° |
| 2026-04-19 14:42 | 65.22245 | 77.02877 | 18677 ft | 329 kts | 358° |
| 2026-04-19 14:43 | 65.24524 | 77.02612 | 18125 ft | 327 kts | 358° |
| 2026-04-19 14:43 | 65.26782 | 77.02356 | 17571 ft | 324 kts | 358° |
| 2026-04-19 14:43 | 65.29024 | 77.02103 | 17044 ft | 321 kts | 358° |
| 2026-04-19 14:43 | 65.31246 | 77.01851 | 16528 ft | 318 kts | 358° |
| 2026-04-19 14:44 | 65.33449 | 77.01593 | 16018 ft | 316 kts | 358° |
| 2026-04-19 14:44 | 65.35634 | 77.01333 | 15495 ft | 313 kts | 358° |
| 2026-04-19 14:44 | 65.37799 | 77.01084 | 15018 ft | 311 kts | 358° |
| 2026-04-19 14:44 | 65.39951 | 77.00837 | 14541 ft | 308 kts | 358° |
| 2026-04-19 14:45 | 65.42089 | 77.00590 | 14051 ft | 306 kts | 358° |
| 2026-04-19 14:45 | 65.44204 | 77.00345 | 13511 ft | 304 kts | 358° |
| 2026-04-19 14:45 | 65.46308 | 77.00100 | 13003 ft | 301 kts | 358° |
| 2026-04-19 14:45 | 65.48394 | 76.99853 | 12493 ft | 299 kts | 358° |
| 2026-04-19 14:46 | 65.50462 | 76.99611 | 11992 ft | 296 kts | 358° |
| 2026-04-19 14:46 | 65.52512 | 76.99371 | 11499 ft | 294 kts | 358° |
| 2026-04-19 14:46 | 65.54546 | 76.99131 | 11006 ft | 292 kts | 358° |
| 2026-04-19 14:46 | 65.56564 | 76.98895 | 10542 ft | 289 kts | 358° |
| 2026-04-19 14:47 | 65.58560 | 76.98660 | 10204 ft | 282 kts | 358° |
| 2026-04-19 14:47 | 65.60473 | 76.98431 | 10033 ft | 270 kts | 358° |
| 2026-04-19 14:47 | 65.62325 | 76.98210 | 9659 ft | 265 kts | 358° |
| 2026-04-19 14:47 | 65.64156 | 76.97993 | 9216 ft | 262 kts | 358° |
| 2026-04-19 14:48 | 65.65973 | 76.97774 | 8774 ft | 260 kts | 357° |
| 2026-04-19 14:48 | 65.67765 | 76.97196 | 8321 ft | 259 kts | 352° |
| 2026-04-19 14:48 | 65.69564 | 76.96523 | 7872 ft | 257 kts | 352° |
| 2026-04-19 14:48 | 65.71329 | 76.95865 | 7436 ft | 256 kts | 352° |
| 2026-04-19 14:49 | 65.73083 | 76.95214 | 7008 ft | 254 kts | 352° |
| 2026-04-19 14:49 | 65.74824 | 76.94566 | 6577 ft | 252 kts | 352° |
| 2026-04-19 14:49 | 65.76555 | 76.93914 | 6123 ft | 251 kts | 352° |
| 2026-04-19 14:49 | 65.78272 | 76.93264 | 5673 ft | 249 kts | 352° |
| 2026-04-19 14:50 | 65.79978 | 76.92616 | 5228 ft | 247 kts | 352° |
| 2026-04-19 14:50 | 65.81671 | 76.91973 | 5002 ft | 245 kts | 352° |
| 2026-04-19 14:50 | 65.83358 | 76.91336 | 4732 ft | 245 kts | 352° |
| 2026-04-19 14:50 | 65.85037 | 76.90705 | 4274 ft | 244 kts | 352° |
| 2026-04-19 14:51 | 65.86713 | 76.90074 | 3842 ft | 243 kts | 352° |
| 2026-04-19 14:51 | 65.88371 | 76.89446 | 3517 ft | 238 kts | 352° |
| 2026-04-19 14:51 | 65.90013 | 76.88822 | 3368 ft | 239 kts | 352° |
| 2026-04-19 14:51 | 65.91651 | 76.88580 | 3042 ft | 230 kts | 5° |
| 2026-04-19 14:52 | 65.93133 | 76.89286 | 2851 ft | 207 kts | 18° |
| 2026-04-19 14:52 | 65.94480 | 76.90352 | 2463 ft | 201 kts | 17° |
| 2026-04-19 14:52 | 65.95777 | 76.91368 | 2211 ft | 190 kts | 17° |
| 2026-04-19 14:52 | 65.97007 | 76.92327 | 2097 ft | 182 kts | 17° |
| 2026-04-19 14:53 | 65.98222 | 76.93249 | 2008 ft | 179 kts | 12° |
| 2026-04-19 14:53 | 65.99425 | 76.93430 | 2017 ft | 170 kts | 354° |
| 2026-04-19 14:53 | 66.00492 | 76.92683 | 2019 ft | 152 kts | 336° |
| 2026-04-19 14:53 | 66.01353 | 76.91264 | 2009 ft | 145 kts | 320° |
| 2026-04-19 14:54 | 66.01984 | 76.89375 | 2028 ft | 143 kts | 305° |
| 2026-04-19 14:54 | 66.02380 | 76.87121 | 2022 ft | 145 kts | 291° |
| 2026-04-19 14:54 | 66.02684 | 76.84827 | 2017 ft | 137 kts | 292° |
| 2026-04-19 14:54 | 66.02976 | 76.82629 | 2018 ft | 134 kts | 293° |
| 2026-04-19 14:55 | 66.03263 | 76.80468 | 2017 ft | 132 kts | 293° |
| 2026-04-19 14:55 | 66.03546 | 76.78325 | 2019 ft | 132 kts | 293° |
| 2026-04-19 14:55 | 66.03829 | 76.76185 | 2027 ft | 131 kts | 293° |
| 2026-04-19 14:55 | 66.04115 | 76.74044 | 1980 ft | 132 kts | 293° |
| 2026-04-19 14:56 | 66.04402 | 76.71910 | 1875 ft | 131 kts | 294° |
| 2026-04-19 14:56 | 66.04684 | 76.69785 | 1678 ft | 130 kts | 292° |
| 2026-04-19 14:56 | 66.04922 | 76.67992 | 1516 ft | 129 kts | 294° |
| 2026-04-19 14:56 | 66.04973 | 76.67622 | 1445 ft | 130 kts | 293° |
| 2026-04-19 14:57 | 66.05235 | 76.65645 | 1269 ft | 120 kts | 291° |
| 2026-04-19 14:57 | 66.05323 | 76.64957 | 1189 ft | 119 kts | 292° |
| 2026-04-19 14:57 | 66.05579 | 76.62999 | 1021 ft | 123 kts | 291° |
| 2026-04-19 14:57 | 66.05840 | 76.60965 | 821 ft | 125 kts | 291° |
| 2026-04-19 14:58 | 66.06101 | 76.58922 | 631 ft | 125 kts | 291° |
| 2026-04-19 14:58 | 66.06368 | 76.56893 | 430 ft | 125 kts | 290° |
| 2026-04-19 14:58 | 66.06627 | 76.54858 | 271 ft | 124 kts | 289° |
| 2026-04-19 14:58 | 66.06889 | 76.52899 | 219 ft | 113 kts | 290° |
| 2026-04-19 14:59 | 66.07147 | 76.50883 | 617 ft | 141 kts | 290° |
| 2026-04-19 14:59 | 66.07450 | 76.48581 | 1499 ft | 142 kts | 292° |
| 2026-04-19 14:59 | 66.07755 | 76.46123 | 1925 ft | 159 kts | 291° |
| 2026-04-19 14:59 | 66.08111 | 76.43345 | 2079 ft | 185 kts | 292° |
| 2026-04-19 15:00 | 66.08531 | 76.40169 | 2007 ft | 200 kts | 291° |
| 2026-04-19 15:00 | 66.08962 | 76.36877 | 2002 ft | 203 kts | 291° |
| 2026-04-19 15:00 | 66.09394 | 76.33562 | 2021 ft | 203 kts | 291° |
| 2026-04-19 15:00 | 66.09831 | 76.30196 | 2025 ft | 203 kts | 291° |
| 2026-04-19 15:01 | 66.10262 | 76.26880 | 2029 ft | 203 kts | 291° |
| 2026-04-19 15:01 | 66.10519 | 76.23455 | 2027 ft | 208 kts | 265° |
| 2026-04-19 15:01 | 66.09827 | 76.20322 | 2038 ft | 218 kts | 220° |
| 2026-04-19 15:01 | 66.08408 | 76.19149 | 2038 ft | 221 kts | 174° |
| 2026-04-19 15:02 | 66.07051 | 76.20633 | 2036 ft | 215 kts | 129° |
| 2026-04-19 15:02 | 66.06240 | 76.23691 | 2032 ft | 214 kts | 111° |
| 2026-04-19 15:02 | 66.05638 | 76.27036 | 2025 ft | 214 kts | 109° |
| 2026-04-19 15:02 | 66.05051 | 76.30397 | 2034 ft | 214 kts | 110° |
| 2026-04-19 15:03 | 66.04426 | 76.33723 | 2028 ft | 214 kts | 112° |
| 2026-04-19 15:03 | 66.03762 | 76.37010 | 2028 ft | 215 kts | 114° |
| 2026-04-19 15:03 | 66.03067 | 76.40263 | 2029 ft | 215 kts | 115° |
| 2026-04-19 15:03 | 66.02348 | 76.43491 | 2026 ft | 215 kts | 116° |
| 2026-04-19 15:04 | 66.01617 | 76.46695 | 2030 ft | 215 kts | 116° |
| 2026-04-19 15:04 | 66.00876 | 76.49894 | 2028 ft | 215 kts | 116° |
| 2026-04-19 15:04 | 66.00131 | 76.53079 | 2022 ft | 215 kts | 116° |
| 2026-04-19 15:04 | 65.99384 | 76.56251 | 2024 ft | 215 kts | 117° |
| 2026-04-19 15:05 | 65.98632 | 76.59420 | 2025 ft | 215 kts | 117° |
| 2026-04-19 15:05 | 65.97878 | 76.62583 | 2024 ft | 215 kts | 117° |
| 2026-04-19 15:05 | 65.97121 | 76.65748 | 2023 ft | 215 kts | 117° |
| 2026-04-19 15:05 | 65.96365 | 76.68911 | 2027 ft | 215 kts | 117° |
| 2026-04-19 15:06 | 65.95610 | 76.72071 | 2030 ft | 215 kts | 117° |
| 2026-04-19 15:06 | 65.94849 | 76.75227 | 2020 ft | 215 kts | 117° |
| 2026-04-19 15:06 | 65.94087 | 76.78376 | 2024 ft | 215 kts | 118° |
| 2026-04-19 15:06 | 65.93326 | 76.81523 | 2022 ft | 215 kts | 117° |
| 2026-04-19 15:07 | 65.92568 | 76.84674 | 2026 ft | 215 kts | 117° |
| 2026-04-19 15:07 | 65.91811 | 76.87822 | 2019 ft | 214 kts | 117° |
| 2026-04-19 15:07 | 65.91300 | 76.89945 | 2024 ft | 214 kts | 117° |
| 2026-04-19 15:07 | 65.90811 | 76.93295 | 2011 ft | 208 kts | 88° |
| 2026-04-19 15:08 | 65.91106 | 76.96660 | 2015 ft | 202 kts | 58° |
| 2026-04-19 15:08 | 65.92022 | 76.99170 | 2018 ft | 197 kts | 30° |
| 2026-04-19 15:08 | 65.93297 | 77.00246 | 2014 ft | 195 kts | 3° |
| 2026-04-19 15:08 | 65.94639 | 76.99786 | 2014 ft | 196 kts | 346° |
| 2026-04-19 15:09 | 65.95964 | 76.98952 | 2013 ft | 197 kts | 346° |
| 2026-04-19 15:09 | 65.97293 | 76.98121 | 2014 ft | 197 kts | 346° |
| 2026-04-19 15:09 | 65.98621 | 76.97290 | 2018 ft | 197 kts | 346° |
| 2026-04-19 15:09 | 65.99938 | 76.96371 | 2017 ft | 197 kts | 338° |
| 2026-04-19 15:10 | 66.01068 | 76.94468 | 2027 ft | 200 kts | 315° |
| 2026-04-19 15:10 | 66.01796 | 76.91555 | 2022 ft | 204 kts | 292° |
| 2026-04-19 15:10 | 66.02236 | 76.88238 | 2018 ft | 204 kts | 291° |
| 2026-04-19 15:10 | 66.02673 | 76.84929 | 2023 ft | 203 kts | 291° |
| 2026-04-19 15:11 | 66.03109 | 76.81637 | 2036 ft | 203 kts | 291° |
| 2026-04-19 15:11 | 66.03328 | 76.79979 | 2033 ft | 203 kts | 291° |
| 2026-04-19 15:11 | 66.03634 | 76.77662 | 2018 ft | 203 kts | 291° |
| 2026-04-19 15:11 | 66.03661 | 76.77456 | 2024 ft | 203 kts | 291° |
| 2026-04-19 15:12 | 66.03999 | 76.74881 | 2017 ft | 201 kts | 291° |
| 2026-04-19 15:12 | 66.04424 | 76.71654 | 1831 ft | 184 kts | 291° |
| 2026-04-19 15:12 | 66.04789 | 76.68861 | 1603 ft | 160 kts | 291° |
| 2026-04-19 15:12 | 66.05114 | 76.66386 | 1377 ft | 145 kts | 292° |
| 2026-04-19 15:13 | 66.05424 | 76.64080 | 1140 ft | 139 kts | 292° |
| 2026-04-19 15:13 | 66.05740 | 76.61874 | 921 ft | 136 kts | 291° |
| 2026-04-19 15:13 | 66.06023 | 76.59661 | 697 ft | 135 kts | 290° |
| 2026-04-19 15:13 | 66.06297 | 76.57449 | 495 ft | 135 kts | 289° |
| 2026-04-19 15:14 | 66.06577 | 76.55248 | 287 ft | 134 kts | 289° |
| 2026-04-19 15:14 | 66.06867 | 76.53111 | 216 ft | 123 kts | 291° |
| 2026-04-19 15:14 | 66.07055 | 76.51608 | 217 ft | 65 kts | 288° |
| 2026-04-19 15:14 | 66.07137 | 76.50992 | 209 ft | 0 kts | 288° |
| 2026-04-19 15:15 | 66.07163 | 76.50717 | 207 ft | 16 kts | 290° |
| 2026-04-19 15:15 | 66.07166 | 76.50698 | 210 ft | 1 kts | 291° |
| 2026-04-19 15:15 | 66.07231 | 76.50588 | 210 ft | 17 kts | 7° |
| 2026-04-19 15:15 | 66.07329 | 76.50659 | 209 ft | 13 kts | 21° |
| 2026-04-19 15:16 | 66.07359 | 76.50784 | 207 ft | 8 kts | 98° |
| 2026-04-19 15:16 | 66.07344 | 76.50942 | 211 ft | 10 kts | 104° |
| 2026-04-19 15:16 | 66.07317 | 76.51155 | 207 ft | 24 kts | 108° |
| 2026-04-19 15:16 | 66.07250 | 76.51669 | 211 ft | 22 kts | 108° |
| 2026-04-19 15:17 | 66.07220 | 76.51900 | 207 ft | 9 kts | 108° |
| 2026-04-19 15:17 | 66.07197 | 76.52070 | 215 ft | 16 kts | 108° |
| 2026-04-19 15:17 | 66.07147 | 76.52186 | 209 ft | 10 kts | 130° |
| 2026-04-19 15:17 | 66.07117 | 76.52387 | 207 ft | 13 kts | 107° |
| 2026-04-19 15:18 | 66.07093 | 76.52591 | 210 ft | 12 kts | 107° |
| 2026-04-19 15:18 | 66.07071 | 76.52781 | 207 ft | 8 kts | 94° |
| 2026-04-19 15:18 | 66.07103 | 76.52866 | 207 ft | 7 kts | 24° |
| 2026-04-19 15:18 | 66.07127 | 76.52887 | 209 ft | 0 kts | 18° |